»·PEaware :: N3610E KSNA-KCNO

N3610E :: KSNA-KCNO

FLIGHT INFORMATION

Flight Status: Arrived
Operator: Privately registered:
United States
More flights under this callsign
Pilot: John C. (12173)
Aircraft: CESSNA 172 SKYHAWK
(C172)
More flights by this aircraft type
Origin: KSNA John Wayne-Orange Co
United States
Destination: KCNO Chino
United States
More flights between these airports :: More routes between these airports
Route: SLI V8 PDZ
File this flight plan on PilotEdge
Remarks:
Altitude:
(Current/Filed)
5,000ft
Speed:
(Current/Filed)
100kts
Departed: 12-Apr-18 09:30 AM
Arrived: 12-Apr-18 10:20 AM
Distance/Time
Traveled:
21nm/0:50
Distance/Time
To Go:
Arrived

Flight Plot

Page will automatically refresh every two minutes.


Map Options




Map Legend


Flown Route
Filed Route
Departure Airport
Arrival Airport
Navaid (VOR, NDB)
Fix

Horizontal Profiles

Position Reports

Time Latitude Longitude Heading Altitude Ground
Speed
12-Apr-18 09:17 33.671164 -117.867619 32 50ft 0kts
12-Apr-18 09:18 33.671164 -117.867619 32 50ft 0kts
12-Apr-18 09:19 33.671164 -117.867619 32 50ft 0kts
12-Apr-18 09:20 33.671164 -117.867619 32 50ft 0kts
12-Apr-18 09:21 33.671164 -117.867619 32 50ft 0kts
12-Apr-18 09:22 33.671164 -117.867619 32 50ft 0kts
12-Apr-18 09:23 33.671164 -117.867619 32 50ft 0kts
12-Apr-18 09:24 33.671595 -117.867675 329 50ft 11kts
12-Apr-18 09:25 33.675161 -117.866431 27 47ft 15kts
12-Apr-18 09:26 33.679210 -117.863868 28 40ft 16kts
12-Apr-18 09:27 33.679944 -117.863571 322 40ft 0kts
12-Apr-18 09:28 33.679954 -117.864262 210 40ft 0kts
12-Apr-18 09:29 33.668398 -117.870756 205 448ft 85kts
12-Apr-18 09:30 33.651199 -117.888755 229 1582ft 83kts
12-Apr-18 09:31 33.635222 -117.908459 224 2614ft 85kts
12-Apr-18 09:32 33.619117 -117.925798 223 3537ft 86kts
12-Apr-18 09:33 33.608116 -117.938264 241 4148ft 83kts
12-Apr-18 09:34 33.615610 -117.953125 319 4838ft 79kts
12-Apr-18 09:35 33.631188 -117.966771 319 4964ft 89kts
12-Apr-18 09:36 33.647814 -117.978664 330 4971ft 92kts
12-Apr-18 09:37 33.665724 -117.990229 325 4964ft 92kts
12-Apr-18 09:38 33.684314 -118.000973 330 4965ft 93kts
12-Apr-18 09:39 33.705910 -118.009948 336 4959ft 94kts
12-Apr-18 09:40 33.729504 -118.021931 327 4951ft 92kts
12-Apr-18 09:41 33.751789 -118.036514 334 4980ft 92kts
12-Apr-18 09:42 33.775108 -118.048660 325 4993ft 91kts
12-Apr-18 09:43 33.795960 -118.043690 79 4946ft 120kts
12-Apr-18 09:44 33.797144 -118.004624 77 4989ft 118kts
12-Apr-18 09:45 33.805157 -117.967129 61 4995ft 115kts
12-Apr-18 09:46 33.816110 -117.932811 62 4992ft 115kts
12-Apr-18 09:47 33.826432 -117.898556 67 4992ft 116kts
12-Apr-18 09:48 33.831506 -117.862700 69 4979ft 117kts
12-Apr-18 09:49 33.840561 -117.825869 63 4997ft 114kts
12-Apr-18 09:50 33.851398 -117.791067 57 5014ft 110kts
12-Apr-18 09:51 33.862308 -117.757306 66 5003ft 109kts
12-Apr-18 09:52 33.866515 -117.721035 76 4972ft 110kts
12-Apr-18 09:53 33.873728 -117.686695 62 4937ft 104kts
12-Apr-18 09:54 33.884706 -117.655549 58 4896ft 101kts
12-Apr-18 09:55 33.894235 -117.624198 69 4849ft 102kts
12-Apr-18 09:56 33.902773 -117.592800 63 4827ft 98kts
12-Apr-18 09:57 33.911073 -117.561565 59 4867ft 98kts
12-Apr-18 09:58 33.918170 -117.531749 71 4936ft 103kts
12-Apr-18 09:59 33.925465 -117.501364 61 4872ft 102kts
12-Apr-18 10:00 33.936511 -117.473561 56 4535ft 101kts
12-Apr-18 10:01 33.945491 -117.448664 60 4384ft 103kts
12-Apr-18 10:02 33.954810 -117.425369 54 4376ft 102kts
12-Apr-18 10:03 33.965042 -117.404802 53 4376ft 104kts
12-Apr-18 10:04 33.972604 -117.382152 62 4379ft 107kts
12-Apr-18 10:05 33.979774 -117.360763 59 4376ft 108kts
12-Apr-18 10:06 33.987229 -117.340318 58 4399ft 107kts
12-Apr-18 10:07 33.999644 -117.323313 344 4389ft 95kts
12-Apr-18 10:08 34.000225 -117.340523 217 4379ft 112kts
12-Apr-18 10:09 33.980348 -117.345128 215 4399ft 113kts
12-Apr-18 10:10 33.971107 -117.363907 257 4344ft 102kts
12-Apr-18 10:11 33.969957 -117.388126 275 4013ft 98kts
12-Apr-18 10:12 33.971829 -117.418226 281 3438ft 99kts
12-Apr-18 10:13 33.976820 -117.451005 278 2993ft 100kts
12-Apr-18 10:14 33.974809 -117.484227 271 2947ft 100kts
12-Apr-18 10:15 33.973961 -117.517802 273 2697ft 100kts
12-Apr-18 10:16 33.975616 -117.551446 275 2178ft 101kts
12-Apr-18 10:17 33.976310 -117.585053 276 1581ft 101kts
12-Apr-18 10:18 33.975927 -117.618327 271 881ft 98kts
12-Apr-18 10:19 33.975845 -117.638873 302 626ft 15kts
12-Apr-18 10:20 33.977984 -117.639238 358 632ft 21kts
12-Apr-18 10:21 33.978797 -117.638895 56 635ft 0kts
12-Apr-18 10:22 33.978797 -117.638895 56 635ft 0kts

Navigation Log

Ident Type
1. KSNA Airport
2. SLI Navaid
3. AHEIM Fix
4. OLLIE Fix
5. POXKU Fix
6. EBITE Fix
7. PDZ Navaid
8. KCNO Airport